createdAt,value
2023-11-02T00:02:14.648Z,0
2023-11-02T00:07:38.471Z,0
2023-11-02T00:12:54.332Z,0
2023-11-02T00:18:36.557Z,0
2023-11-02T00:24:20.369Z,0
2023-11-02T00:29:26.904Z,0
2023-11-02T00:35:20.839Z,4.8
2023-11-02T00:46:01.971Z,2.4
2023-11-02T00:51:53.292Z,0
2023-11-02T00:57:22.298Z,0
2023-11-02T01:02:41.697Z,0
2023-11-02T01:08:03.522Z,0
2023-11-02T01:13:56.780Z,0
2023-11-02T01:19:12.434Z,0
2023-11-02T01:25:05.806Z,0
2023-11-02T01:30:22.713Z,0
2023-11-02T01:35:44.151Z,0
2023-11-02T01:41:34.128Z,0
2023-11-02T01:47:01.166Z,0
2023-11-02T01:52:32.341Z,0
2023-11-02T01:57:53.754Z,0
2023-11-02T02:03:33.883Z,7.2
2023-11-02T02:09:00.051Z,0
2023-11-02T02:14:24.602Z,0
2023-11-02T02:20:15.640Z,0
2023-11-02T02:31:08.243Z,0
2023-11-02T02:36:46.983Z,0
2023-11-02T02:42:01.030Z,0
2023-11-02T02:47:41.303Z,0
2023-11-02T02:53:25.767Z,0
2023-11-02T02:59:00.421Z,0
2023-11-02T03:04:14.114Z,0
2023-11-02T03:09:51.135Z,0
2023-11-02T03:20:45.140Z,0
2023-11-02T03:26:34.806Z,0
2023-11-02T03:31:59.286Z,0
2023-11-02T03:37:14.986Z,0
2023-11-02T03:43:06.884Z,0
2023-11-02T03:48:30.426Z,0
2023-11-02T03:54:11.865Z,0
2023-11-02T03:59:37.147Z,0
2023-11-02T04:05:20.190Z,0
2023-11-02T04:10:39.777Z,0
2023-11-02T04:16:24.694Z,0
2023-11-02T04:21:49.034Z,0
2023-11-02T04:27:10.167Z,0
2023-11-02T04:32:32.473Z,0
2023-11-02T04:38:21.695Z,0
2023-11-02T04:43:41.221Z,0
2023-11-02T04:49:34.105Z,0
2023-11-02T04:54:46.758Z,0
2023-11-02T05:00:25.651Z,0
2023-11-02T05:05:54.724Z,0
2023-11-02T05:11:18.929Z,0
2023-11-02T05:16:55.800Z,0
2023-11-02T05:22:31.907Z,0
2023-11-02T05:27:47.562Z,0
2023-11-02T05:33:46.365Z,0
2023-11-02T05:39:06.952Z,0
2023-11-02T05:44:20.857Z,0
2023-11-02T05:49:57.249Z,0
2023-11-02T05:55:37.448Z,0
2023-11-02T06:01:02.310Z,0
2023-11-02T06:06:29.255Z,0
2023-11-02T06:11:59.908Z,0
2023-11-02T06:17:50.064Z,0
2023-11-02T06:23:28.794Z,0
2023-11-02T06:28:34.266Z,2.4
2023-11-02T06:34:07.174Z,0
2023-11-02T06:39:45.191Z,0
2023-11-02T06:50:40.313Z,0
2023-11-02T06:56:14.769Z,0
2023-11-02T07:02:11.051Z,0
2023-11-02T07:07:32.377Z,0
2023-11-02T07:12:51.607Z,0
2023-11-02T07:18:19.901Z,0
2023-11-02T07:23:55.343Z,0
2023-11-02T07:29:37.881Z,0
2023-11-02T07:35:15.377Z,0
2023-11-02T07:45:56.096Z,0
2023-11-02T07:51:31.872Z,0
2023-11-02T07:57:17.386Z,0
2023-11-02T08:02:40.161Z,0
2023-11-02T08:08:26.161Z,0
2023-11-02T08:13:56.787Z,0
2023-11-02T08:19:25.608Z,2.4
2023-11-02T08:24:49.170Z,0
2023-11-02T08:35:40.674Z,0
2023-11-02T08:41:33.461Z,0
2023-11-02T08:47:09.143Z,0
2023-11-02T08:52:30.626Z,0
2023-11-02T08:57:59.868Z,0
2023-11-02T09:03:22.244Z,0
2023-11-02T09:09:05.987Z,0
2023-11-02T09:14:29.164Z,0
2023-11-02T09:19:55.797Z,0
2023-11-02T09:25:38.809Z,0
2023-11-02T09:30:55.991Z,0
2023-11-02T09:36:38.892Z,0
2023-11-02T09:42:20.644Z,0
2023-11-02T09:47:35.895Z,2.4
2023-11-02T09:53:26.248Z,5.9
2023-11-02T09:59:03.638Z,4.8
2023-11-02T10:04:17.046Z,4.8
2023-11-02T10:09:50.967Z,2.4
2023-11-02T10:15:20.056Z,4.8
2023-11-02T10:26:31.110Z,4.8
2023-11-02T10:31:49.229Z,4.8
2023-11-02T10:37:25.040Z,3.6
2023-11-02T10:43:01.211Z,0
2023-11-02T10:48:43.963Z,3.6
2023-11-02T10:54:23.861Z,3.6
2023-11-02T10:59:54.320Z,3.6
2023-11-02T11:05:08.213Z,4.8
2023-11-02T11:10:41.864Z,0
2023-11-02T11:16:21.390Z,0
2023-11-02T11:22:00.958Z,0
2023-11-02T11:27:12.050Z,3.6
2023-11-02T11:33:08.386Z,4.8
2023-11-02T11:38:26.579Z,3.6
2023-11-02T11:43:45.030Z,2.4
2023-11-02T11:49:37.028Z,3.6
2023-11-02T11:55:16.279Z,3.6
2023-11-02T12:00:25.740Z,2.4
2023-11-02T12:05:54.118Z,2.4
2023-11-02T12:11:42.906Z,4.8
2023-11-02T12:17:10.519Z,4.8
2023-11-02T12:22:47.447Z,2.4
2023-11-02T12:28:22.928Z,3.6
2023-11-02T12:33:39.310Z,3.6
2023-11-02T12:39:18.374Z,0
2023-11-02T12:44:48.371Z,0
2023-11-02T12:50:12.684Z,3.6
2023-11-02T13:01:22.265Z,4.8
2023-11-02T13:07:13.885Z,4.8
2023-11-02T13:12:42.198Z,3.6
2023-11-02T13:18:09.836Z,2.4
2023-11-02T13:23:33.063Z,2.4
2023-11-02T13:29:08.925Z,2.4
2023-11-02T13:34:31.314Z,2.4
2023-11-02T13:40:22.307Z,3.6
2023-11-02T13:45:55.449Z,5.9
2023-11-02T13:51:12.181Z,4.8
2023-11-02T13:57:00.191Z,5.9
2023-11-02T14:02:26.058Z,7.2
2023-11-02T14:07:41.428Z,5.9
2023-11-02T14:13:42.105Z,4.8
2023-11-02T14:19:14.593Z,4.8
2023-11-02T14:24:26.192Z,4.8
2023-11-02T14:30:04.763Z,4.8
2023-11-02T14:46:54.794Z,3.6
2023-11-02T14:52:03.406Z,4.8
2023-11-02T14:57:47.380Z,3.6
2023-11-02T15:03:28.026Z,5.9
2023-11-02T15:08:41.212Z,3.6
2023-11-02T15:14:34.655Z,3.6
2023-11-02T15:19:46.758Z,4.8
2023-11-02T15:25:21.343Z,0
2023-11-02T15:36:19.235Z,0
2023-11-02T15:41:47.344Z,3.6
2023-11-02T15:47:25.051Z,4.8
2023-11-02T15:52:58.341Z,4.8
2023-11-02T15:58:28.920Z,3.6
2023-11-02T16:04:07.614Z,2.4
2023-11-02T16:09:48.723Z,3.6
2023-11-02T16:15:16.932Z,4.8
2023-11-02T16:20:42.045Z,7.2
2023-11-02T16:26:07.187Z,7.2
2023-11-02T16:31:43.681Z,5.9
2023-11-02T16:37:11.554Z,9.6
2023-11-02T16:42:49.566Z,8.4
2023-11-02T16:48:33.804Z,8.4
2023-11-02T16:54:11.955Z,10.7
2023-11-02T16:59:48.048Z,10.7
2023-11-02T17:04:52.166Z,10.7
2023-11-02T17:10:43.908Z,5.9
2023-11-02T17:16:10.204Z,5.9
2023-11-02T17:27:29.186Z,9.6
2023-11-02T17:32:56.030Z,7.2
2023-11-02T17:38:09.527Z,5.9
2023-11-02T17:43:47.697Z,4.8
2023-11-02T17:49:34.463Z,4.8
2023-11-02T17:55:09.948Z,5.9
2023-11-02T18:00:21.694Z,5.9
2023-11-02T18:11:29.367Z,3.6
2023-11-02T18:17:18.615Z,2.4
2023-11-02T18:22:30.243Z,0
2023-11-02T18:28:06.241Z,0
2023-11-02T18:33:38.998Z,3.6
2023-11-02T18:39:00.391Z,3.6
2023-11-02T18:44:41.751Z,0
2023-11-02T18:50:27.133Z,0
2023-11-02T19:01:15.038Z,2.4
2023-11-02T19:06:44.051Z,0
2023-11-02T19:12:27.583Z,0
2023-11-02T19:17:49.683Z,0
2023-11-02T19:23:33.853Z,0
2023-11-02T19:28:51.664Z,0
2023-11-02T19:34:33.161Z,0
2023-11-02T19:40:10.384Z,8.4
2023-11-02T19:45:39.744Z,7.2
2023-11-02T19:51:08.734Z,5.9
2023-11-02T19:56:30.118Z,0
2023-11-02T20:02:15.533Z,0
2023-11-02T20:07:32.583Z,0
2023-11-02T20:13:11.717Z,0
2023-11-02T20:18:46.362Z,7.2
2023-11-02T20:24:05.752Z,2.4
2023-11-02T20:30:00.187Z,0
2023-11-02T20:40:42.356Z,0
2023-11-02T20:51:59.228Z,0
2023-11-02T20:57:10.173Z,0
2023-11-02T21:03:05.081Z,2.4
2023-11-02T21:08:26.545Z,3.6
2023-11-02T21:14:00.363Z,4.8
2023-11-02T21:19:27.995Z,4.8
2023-11-02T21:25:06.204Z,0
2023-11-02T21:30:35.747Z,0
2023-11-02T21:35:52.677Z,3.6
2023-11-02T21:41:49.242Z,2.4
2023-11-02T21:47:02.863Z,0
2023-11-02T21:52:53.043Z,0
2023-11-02T21:58:08.151Z,0
2023-11-02T22:03:45.549Z,7.2
2023-11-02T22:09:25.734Z,2.4
2023-11-02T22:14:55.459Z,0
2023-11-02T22:20:28.570Z,0
2023-11-02T22:25:57.364Z,0
2023-11-02T22:31:12.965Z,3.6
2023-11-02T22:36:46.667Z,0
2023-11-02T22:42:37.383Z,0
2023-11-02T22:47:57.126Z,0
2023-11-02T22:53:35.163Z,0
2023-11-02T22:58:51.172Z,3.6
2023-11-02T23:04:29.381Z,5.9
2023-11-02T23:10:06.214Z,3.6
2023-11-02T23:15:34.529Z,0
2023-11-02T23:20:55.190Z,0
2023-11-02T23:26:23.057Z,0
2023-11-02T23:32:13.351Z,0
2023-11-02T23:37:45.346Z,4.8
2023-11-02T23:43:06.861Z,4.8
2023-11-02T23:48:36.655Z,2.4
2023-11-02T23:54:00.389Z,4.8
2023-11-02T23:59:35.216Z,5.9
